EW7144 Weather Reports


Display with metric or nautical units.
time (UTC)temp
F
wind
direction
speed
MPH
gust
MPH
rain 1hr
in
rain 24hr
in
rain mn
in
humidity
%
barometer
mb
20200709152405 41 128 0.0 1.0 0.00 0.00 0.00 75 1021.9
20200709151905 41 128 0.0 0.0 0.00 0.00 0.00 76 1021.9
20200709151405 41 128 0.0 1.0 0.00 0.00 0.00 75 1022.0
20200709150907 41 128 0.0 1.0 0.00 0.00 0.00 75 1021.9
20200709150405 41 128 1.0 1.0 0.00 0.00 0.00 75 1021.9
20200709145905 42 128 0.0 2.0 0.00 0.00 0.00 74 1021.8
20200709145408 43 128 0.0 1.0 0.00 0.00 0.00 73 1021.8
20200709144906 44 129 0.0 2.0 0.00 0.00 0.00 70 1021.8
20200709144407 43 107 1.0 3.0 0.00 0.00 0.00 70 1021.8
20200709143905 43 72 0.0 1.0 0.00 0.00 0.00 72 1021.7
20200709143437 45 72 0.0 1.0 0.00 0.00 0.00 70 1021.7
20200709142921 47 72 0.0 3.0 0.00 0.00 0.00 65 1021.7
20200709142406 48 90 2.0 6.0 0.00 0.00 0.00 57 1021.6
20200709141905 47 101 3.0 6.0 0.00 0.00 0.00 58 1021.5
20200709141405 46 89 3.0 7.0 0.00 0.00 0.00 61 1021.6
20200709140907 45 82 2.0 5.0 0.00 0.00 0.00 64 1021.6
20200709140405 44 70 2.0 3.0 0.00 0.00 0.00 66 1021.6
20200709135905 44 80 1.0 3.0 0.00 0.00 0.00 67 1021.7
20200709135406 44 120 0.0 1.0 0.00 0.00 0.00 69 1021.5
20200709134905 45 120 0.0 1.0 0.00 0.00 0.00 67 1021.5
20200709134406 46 120 0.0 3.0 0.00 0.00 0.00 67 1021.5
20200709133905 45 114 3.0 6.0 0.00 0.00 0.00 69 1021.5
20200709133405 44 110 4.0 7.0 0.00 0.00 0.00 71 1021.5
20200709132907 44 116 1.0 2.0 0.00 0.00 0.00 72 1021.5
20200709132405 44 116 1.0 3.0 0.00 0.00 0.00 73 1021.5
20200709131907 43 116 0.0 0.0 0.00 0.00 0.00 75 1021.4
20200709131406 42 116 0.0 0.0 0.00 0.00 0.00 77 1021.5
20200709130905 41 116 0.0 0.0 0.00 0.00 0.00 77 1021.6
20200709130405 41 116 0.0 0.0 0.00 0.00 0.00 78 1021.5
20200709125905 41 197 0.0 0.0 0.00 0.00 0.00 78 1021.4
20200709125406 41 197 0.0 0.0 0.00 0.00 0.00 77 1021.4
20200709124905 41 197 0.0 2.0 0.00 0.00 0.00 77 1021.4
20200709124405 42 160 1.0 3.0 0.00 0.00 0.00 76 1021.3
20200709123908 42 56 1.0 2.0 0.00 0.00 0.00 76 1021.3
20200709123405 43 319 1.0 2.0 0.00 0.00 0.00 75 1021.3
20200709122905 43 320 0.0 1.0 0.00 0.00 0.00 75 1021.3
20200709122405 43 323 2.0 6.0 0.00 0.00 0.00 75 1021.2
20200709121905 42 110 3.0 3.0 0.00 0.00 0.00 77 1021.2
20200709121405 41 160 1.0 3.0 0.00 0.03 0.00 78 1021.2
20200709120905 42 319 1.0 2.0 0.00 0.03 0.00 77 1021.2
20200709120405 42 325 1.0 2.0 0.00 0.03 0.00 77 1021.1
20200709115905 44 322 0.0 2.0 0.00 0.03 0.00 75 1021.0
20200709115405 45 325 2.0 5.0 0.00 0.03 0.00 72 1021.0
20200709114906 47 96 1.0 3.0 0.00 0.03 0.00 68 1020.8
20200709114405 45 105 4.0 7.0 0.00 0.03 0.00 72 1020.7
20200709113905 42 104 3.0 6.0 0.00 0.03 0.00 79 1020.7
20200709113405 40 107 2.0 3.0 0.00 0.03 0.00 81 1020.7
20200709112908 40 221 1.0 2.0 0.00 0.03 0.00 81 1020.8
20200709112405 40 233 1.0 1.0 0.00 0.03 0.00 80 1020.9
20200709111921 40 233 0.0 1.0 0.00 0.03 0.00 80 1020.8
20200709111405 41 233 0.0 2.0 0.00 0.03 0.00 79 1020.7
20200709110905 41 238 1.0 2.0 0.00 0.03 0.00 78 1020.6
20200709110405 42 300 1.0 3.0 0.00 0.03 0.00 77 1020.5
20200709105906 41 210 0.0 3.0 0.00 0.03 0.00 77 1020.4
20200709105408 41 127 0.0 1.0 0.00 0.03 0.00 78 1020.3
20200709104905 41 127 0.0 1.0 0.00 0.03 0.00 79 1020.5
20200709104405 42 127 1.0 2.0 0.00 0.03 0.00 78 1020.5
20200709103905 42 127 1.0 3.0 0.00 0.03 0.00 79 1020.5
20200709103406 41 136 3.0 5.0 0.00 0.03 0.00 80 1020.5
20200709102905 41 47 1.0 3.0 0.00 0.03 0.00 79 1020.6
20200709102405 41 125 0.0 2.0 0.00 0.03 0.00 79 1020.5
20200709101905 41 125 1.0 2.0 0.00 0.03 0.00 80 1020.3
20200709101406 41 102 1.0 3.0 0.00 0.03 0.00 79 1020.3
20200709100905 42 344 1.0 3.0 0.00 0.03 0.00 78 1020.3
20200709100405 42 359 1.0 2.0 0.00 0.03 0.00 77 1020.3
20200709095906 42 359 1.0 2.0 0.00 0.03 0.00 77 1020.3
20200709095405 43 319 0.0 1.0 0.00 0.03 0.00 76 1020.1
20200709094906 43 321 0.0 1.0 0.00 0.03 0.00 75 1020.0
20200709094409 44 326 0.0 2.0 0.00 0.03 0.00 74 1020.1
20200709093906 45 74 0.0 2.0 0.00 0.03 0.00 70 1020.0
20200709093406 45 75 1.0 2.0 0.00 0.03 0.00 71 1020.0
20200709092906 46 74 0.0 1.0 0.00 0.03 0.00 71 1020.0
20200709092405 45 74 0.0 1.0 0.00 0.03 0.00 71 1019.9
20200709091906 45 74 2.0 3.0 0.00 0.03 0.00 73 1019.9
20200709091405 44 39 1.0 2.0 0.00 0.03 0.00 76 1019.9
20200709090906 44 39 1.0 2.0 0.00 0.03 0.00 77 1019.9
20200709090407 43 333 1.0 2.0 0.00 0.03 0.00 78 1019.9
20200709085906 44 333 0.0 1.0 0.00 0.03 0.00 77 1020.0
20200709085406 44 327 1.0 2.0 0.00 0.03 0.00 77 1020.0
20200709084905 44 307 1.0 2.0 0.00 0.03 0.00 77 1020.0
20200709084405 44 308 0.0 1.0 0.00 0.03 0.00 77 1020.0
20200709083905 44 308 1.0 1.0 0.00 0.03 0.00 77 1019.9
20200709083405 44 303 0.0 1.0 0.00 0.03 0.00 76 1019.9
20200709082905 44 313 0.0 1.0 0.00 0.03 0.00 76 1019.8
20200709082407 44 306 0.0 1.0 0.00 0.03 0.00 76 1019.7
20200709081905 44 303 0.0 1.0 0.00 0.03 0.00 76 1019.7
20200709081406 44 309 0.0 2.0 0.00 0.03 0.00 76 1019.6
20200709080906 44 309 1.0 2.0 0.00 0.03 0.00 77 1019.6
20200709080405 44 317 0.0 1.0 0.00 0.03 0.00 76 1019.5
20200709075905 45 314 0.0 1.0 0.00 0.03 0.00 76 1019.6
20200709075405 45 311 0.0 0.0 0.00 0.03 0.00 76 1019.6
20200709074906 45 309 0.0 1.0 0.00 0.03 0.00 76 1019.5
20200709074406 45 324 0.0 2.0 0.00 0.03 0.00 76 1019.5
20200709073905 45 314 1.0 2.0 0.00 0.03 0.00 76 1019.5
20200709073405 45 312 1.0 2.0 0.00 0.03 0.00 76 1019.5
20200709072905 45 212 0.0 1.0 0.00 0.03 0.00 75 1019.5
20200709072405 45 212 0.0 1.0 0.00 0.03 0.00 75 1019.4
20200709071905 46 212 1.0 1.0 0.00 0.03 0.00 74 1019.3
20200709071405 46 212 0.0 1.0 0.00 0.03 0.00 74 1019.3
20200709070905 46 212 0.0 1.0 0.00 0.03 0.00 73 1019.2
20200709070406 46 212 1.0 1.0 0.00 0.03 0.00 73 1019.1
20200709065905 46 212 0.0 1.0 0.00 0.03 0.00 72 1019.1
20200709065405 46 212 0.0 1.0 0.00 0.03 0.00 72 1018.9
20200709064905 46 212 0.0 2.0 0.00 0.03 0.00 73 1018.9
20200709064406 47 212 0.0 2.0 0.00 0.03 0.00 72 1018.8
20200709063907 47 182 1.0 2.0 0.00 0.03 0.00 72 1018.7
20200709063406 47 179 0.0 2.0 0.00 0.03 0.00 71 1018.6
20200709062905 47 175 0.0 1.0 0.00 0.03 0.00 70 1018.5
20200709062405 47 175 0.0 1.0 0.00 0.03 0.00 70 1018.5
20200709061905 48 175 1.0 2.0 0.00 0.03 0.00 70 1018.5
20200709061405 48 170 0.0 2.0 0.00 0.03 0.00 69 1018.4
20200709060905 48 156 1.0 2.0 0.00 0.03 0.00 69 1018.4
20200709060405 48 156 0.0 2.0 0.00 0.03 0.00 67 1018.3
20200709055906 48 124 0.0 2.0 0.00 0.03 0.00 68 1018.2
20200709055405 48 85 0.0 2.0 0.00 0.03 0.00 68 1018.0
20200709054906 48 85 1.0 2.0 0.00 0.03 0.00 69 1018.0
20200709054405 47 85 1.0 2.0 0.00 0.03 0.00 70 1017.9
20200709053906 47 165 1.0 1.0 0.00 0.03 0.00 71 1017.7
20200709053405 47 167 1.0 2.0 0.00 0.03 0.00 72 1017.7
20200709052905 48 157 1.0 2.0 0.00 0.03 0.00 71 1017.6
20200709052405 49 169 1.0 3.0 0.00 0.03 0.00 70 1017.6
20200709051905 50 210 0.0 2.0 0.00 0.03 0.00 68 1017.6
20200709051405 51 218 0.0 2.0 0.00 0.03 0.00 67 1017.5
20200709050906 52 218 0.0 2.0 0.00 0.03 0.00 66 1017.5
20200709050406 52 237 1.0 3.0 0.00 0.03 0.00 66 1017.4
20200709045906 52 227 1.0 3.0 0.00 0.03 0.00 66 1017.3
20200709045405 53 191 1.0 5.0 0.00 0.03 0.00 65 1017.3
20200709044906 53 206 1.0 3.0 0.00 0.03 0.00 62 1017.2
20200709044406 54 240 1.0 3.0 0.00 0.03 0.00 61 1017.2
20200709043906 54 221 2.0 3.0 0.00 0.03 0.00 61 1017.2
20200709043406 55 249 2.0 9.0 0.00 0.03 0.00 59 1017.2
20200709042905 55 267 2.0 7.0 0.00 0.03 0.00 58 1017.1
20200709042405 55 235 3.0 8.0 0.00 0.03 0.00 58 1017.1
20200709041905 55 264 3.0 7.0 0.00 0.03 0.00 59 1017.1
20200709041406 55 251 3.0 8.0 0.00 0.03 0.00 59 1017.0
20200709040906 55 258 3.0 6.0 0.00 0.04 0.00 57 1016.9
20200709040405 56 286 2.0 7.0 0.00 0.05 0.00 57 1016.9
20200709035905 56 281 2.0 6.0 0.00 0.06 0.00 58 1016.8
20200709035406 55 198 2.0 6.0 0.00 0.06 0.00 61 1016.8
20200709034905 55 251 3.0 7.0 0.00 0.06 0.00 59 1016.8
20200709034405 55 276 1.0 6.0 0.00 0.06 0.00 62 1016.7
20200709033905 55 212 2.0 6.0 0.00 0.06 0.00 63 1016.6
20200709033405 55 326 2.0 8.0 0.00 0.06 0.00 62 1016.6
20200709032905 55 234 2.0 6.0 0.00 0.06 0.00 62 1016.6
20200709032406 56 289 2.0 6.0 0.00 0.06 0.00 60 1016.6
20200709031909 56 256 2.0 7.0 0.00 0.06 0.00 58 1016.6
20200709031405 56 237 2.0 7.0 0.00 0.06 0.00 59 1016.6
20200709030906 56 250 1.0 9.0 0.00 0.06 0.00 60 1016.6
20200709030405 56 262 3.0 10.0 0.00 0.06 0.00 61 1016.5
20200709025907 56 243 3.0 10.0 0.00 0.06 0.00 59 1016.5
20200709025405 55 287 5.0 12.0 0.00 0.06 0.00 60 1016.5
20200709024906 55 254 3.0 12.0 0.00 0.06 0.00 61 1016.4
20200709024405 56 271 4.0 12.0 0.00 0.06 0.00 61 1016.4
20200709023906 56 251 5.0 10.0 0.00 0.06 0.00 59 1016.5
20200709023405 56 254 4.0 10.0 0.00 0.06 0.00 59 1016.4
20200709022907 56 261 4.0 12.0 0.00 0.06 0.00 57 1016.4
20200709022405 56 274 5.0 9.0 0.00 0.06 0.00 56 1016.4
20200709021905 56 280 4.0 12.0 0.00 0.06 0.00 56 1016.3
20200709021405 56 295 5.0 10.0 0.00 0.06 0.00 57 1016.3
20200709020907 56 282 4.0 9.0 0.00 0.06 0.00 54 1016.4
20200709020405 56 252 2.0 8.0 0.00 0.06 0.00 53 1016.4
20200709015906 56 314 3.0 8.0 0.00 0.06 0.00 57 1016.4
20200709015405 55 245 3.0 12.0 0.00 0.06 0.00 57 1016.4
20200709014907 55 357 5.0 8.0 0.00 0.06 0.00 58 1016.5
20200709014405 55 283 5.0 12.0 0.00 0.06 0.00 58 1016.5
20200709013907 55 261 3.0 9.0 0.00 0.06 0.00 57 1016.4
20200709013405 55 278 4.0 13.0 0.00 0.06 0.00 58 1016.4
20200709012905 55 233 3.0 12.0 0.00 0.06 0.00 63 1016.4
20200709012405 54 272 5.0 12.0 0.00 0.06 0.00 61 1016.4
20200709011906 54 275 5.0 12.0 0.00 0.06 0.00 61 1016.5
20200709011408 54 287 5.0 14.0 0.00 0.06 0.00 61 1016.4
20200709010914 54 270 4.0 12.0 0.00 0.06 0.00 62 1016.5
20200709010405 54 272 5.0 12.0 0.00 0.06 0.00 62 1016.5
20200709005905 55 277 4.0 10.0 0.00 0.06 0.00 59 1016.5
20200709005405 54 274 3.0 9.0 0.00 0.06 0.00 56 1016.5
20200709004905 54 279 4.0 12.0 0.00 0.06 0.00 55 1016.5
20200709004405 55 245 5.0 10.0 0.00 0.06 0.00 54 1016.4
20200709003905 55 249 5.0 10.0 0.00 0.06 0.00 56 1016.5
20200709003405 55 277 1.0 8.0 0.00 0.06 0.00 58 1016.5
20200709002905 54 244 4.0 9.0 0.00 0.06 0.00 54 1016.6
20200709002405 54 241 4.0 10.0 0.00 0.06 0.00 56 1016.6
20200709001906 54 249 3.0 7.0 0.00 0.06 0.00 58 1016.6
20200709001405 54 271 3.0 9.0 0.00 0.06 0.00 60 1016.6
20200709000905 54 251 2.0 6.0 0.00 0.06 0.00 63 1016.6
20200709000405 53 232 3.0 7.0 0.00 0.06 0.00 63 1016.6
20200708235905 53 225 2.0 5.0 0.00 0.06 0.00 62 1016.6
20200708235405 53 257 2.0 5.0 0.00 0.06 0.00 63 1016.6
20200708234905 52 233 2.0 3.0 0.00 0.06 0.00 63 1016.6
20200708234406 52 252 1.0 3.0 0.00 0.06 0.00 64 1016.5
20200708233905 51 241 1.0 2.0 0.00 0.06 0.00 64 1016.6
20200708233406 51 232 1.0 2.0 0.00 0.06 0.00 62 1016.6
20200708232906 51 236 1.0 3.0 0.00 0.06 0.00 63 1016.6
20200708232405 51 244 2.0 6.0 0.00 0.06 0.00 62 1016.6
20200708231905 51 253 2.0 3.0 0.00 0.06 0.00 63 1016.6
20200708231405 51 263 1.0 3.0 0.00 0.06 0.00 63 1016.6
20200708230906 50 268 1.0 3.0 0.00 0.06 0.00 62 1016.6
20200708230406 50 272 2.0 3.0 0.00 0.06 0.00 62 1016.6
20200708225905 49 251 1.0 2.0 0.00 0.06 0.00 63 1016.5
20200708225406 49 251 2.0 3.0 0.00 0.06 0.00 65 1016.4
20200708224905 48 262 2.0 5.0 0.00 0.06 0.00 71 1016.4
20200708224405 48 259 2.0 3.0 0.00 0.06 0.00 74 1016.3
20200708223905 48 297 1.0 2.0 0.00 0.06 0.00 77 1016.3
20200708223404 47 269 1.0 2.0 0.00 0.06 0.00 77 1016.3
20200708222906 46 264 1.0 2.0 0.00 0.06 0.00 77 1016.1
20200708221906 45 265 1.0 2.0 0.00 0.06 0.00 74 1016.2
20200708221405 47 261 1.0 3.0 0.00 0.06 0.00 74 1016.1
20200708220905 47 214 1.0 3.0 0.00 0.06 0.00 74 1016.0
20200708220405 47 186 1.0 2.0 0.00 0.06 0.00 73 1015.8
20200708215905 47 186 0.0 1.0 0.00 0.06 0.00 74 1015.9
20200708215405 46 186 1.0 2.0 0.00 0.06 0.00 75 1015.8
20200708213906 41 148 2.0 3.0 0.00 0.06 0.00 79 1015.6
20200708213405 41 148 0.0 2.0 0.00 0.06 0.00 79 1015.6
20200708212905 41 248 1.0 3.0 0.00 0.06 0.00 78 1015.6
20200708212405 42 249 2.0 3.0 0.00 0.06 0.00 75 1015.4
20200708211905 44 294 3.0 6.0 0.00 0.06 0.00 70 1015.1
20200708211405 45 90 1.0 6.0 0.00 0.06 0.00 65 1014.8
20200708210905 43 99 2.0 6.0 0.00 0.06 0.00 72 1014.7
20200708210405 42 206 1.0 2.0 0.00 0.06 0.00 75 1014.8
20200708205905 41 178 1.0 2.0 0.00 0.06 0.00 76 1014.7
20200708205405 40 152 2.0 3.0 0.00 0.06 0.00 76 1014.7
20200708204904 41 116 2.0 3.0 0.00 0.06 0.00 74 1014.6
20200708204405 42 231 1.0 3.0 0.00 0.06 0.00 71 1014.5
20200708203907 41 199 2.0 3.0 0.00 0.06 0.00 72 1014.4
20200708203405 41 165 1.0 3.0 0.00 0.06 0.00 73 1014.4
20200708202905 39 133 0.0 1.0 0.00 0.06 0.00 76 1014.3
20200708202410 39 132 1.0 2.0 0.00 0.06 0.00 77 1014.2
20200708201905 40 133 2.0 3.0 0.00 0.06 0.00 76 1014.1
20200708201404 40 285 1.0 2.0 0.00 0.06 0.00 76 1014.0
20200708200904 40 275 1.0 3.0 0.00 0.06 0.00 76 1013.9
20200708200405 40 160 2.0 3.0 0.00 0.06 0.00 76 1013.9
20200708195904 40 172 1.0 3.0 0.00 0.06 0.00 78 1013.7
20200708195405 39 147 3.0 6.0 0.00 0.06 0.00 78 1013.6
20200708194405 40 254 1.0 2.0 0.00 0.06 0.00 76 1013.4
20200708193911 42 35 1.0 3.0 0.00 0.06 0.00 74 1013.3
20200708193405 43 96 0.0 3.0 0.00 0.06 0.00 71 1013.3
20200708192905 43 103 2.0 3.0 0.00 0.06 0.00 72 1013.0
20200708192405 42 119 2.0 3.0 0.00 0.06 0.00 75 1012.9
20200708191905 40 110 3.0 3.0 0.00 0.06 0.00 80 1012.7
20200708191406 40 183 0.0 2.0 0.00 0.06 0.00 81 1012.7
20200708190905 39 193 1.0 3.0 0.00 0.06 0.00 81 1012.6
20200708190405 39 91 2.0 3.0 0.00 0.06 0.00 82 1012.4
20200708185905 39 218 2.0 6.0 0.00 0.06 0.00 83 1012.3
20200708185408 38 93 1.0 3.0 0.00 0.06 0.00 84 1012.1
20200708184907 38 46 2.0 6.0 0.00 0.06 0.00 83 1011.9
20200708184405 38 141 1.0 3.0 0.00 0.06 0.00 83 1011.8
20200708183905 39 162 1.0 2.0 0.00 0.06 0.00 83 1011.8
20200708183406 39 206 0.0 2.0 0.00 0.06 0.00 83 1011.6
20200708182906 40 206 0.0 1.0 0.00 0.06 0.00 82 1011.5
20200708182406 40 206 1.0 1.0 0.00 0.06 0.00 83 1011.4
20200708181905 39 331 1.0 2.0 0.00 0.06 0.00 84 1011.3
20200708181405 39 152 1.0 2.0 0.00 0.06 0.00 85 1011.1
20200708180906 39 158 2.0 3.0 0.00 0.06 0.00 85 1011.0
20200708180406 39 119 1.0 3.0 0.00 0.06 0.00 86 1010.9
20200708175905 39 167 1.0 3.0 0.00 0.06 0.00 86 1010.8
20200708175407 39 139 1.0 3.0 0.00 0.06 0.00 86 1010.8
20200708174905 38 72 1.0 3.0 0.00 0.06 0.00 86 1010.6
20200708174405 38 284 0.0 1.0 0.00 0.06 0.00 86 1010.6
20200708173905 39 284 0.0 2.0 0.00 0.06 0.00 86 1010.6
20200708173406 39 284 2.0 3.0 0.00 0.06 0.00 86 1010.5
20200708172904 39 284 1.0 1.0 0.00 0.06 0.00 86 1010.4
20200708172405 39 284 0.0 1.0 0.00 0.06 0.00 86 1010.4
20200708171905 39 284 0.0 1.0 0.00 0.06 0.00 85 1010.3
20200708171405 39 281 1.0 2.0 0.00 0.06 0.00 85 1010.3
20200708170906 39 147 1.0 5.0 0.00 0.06 0.00 85 1010.1
20200708170409 39 152 2.0 3.0 0.00 0.06 0.00 85 1010.1
20200708165905 38 234 0.0 2.0 0.00 0.06 0.00 85 1010.1
20200708165406 39 177 0.0 1.0 0.00 0.06 0.00 85 1010.0
20200708164905 39 177 1.0 2.0 0.00 0.06 0.00 85 1010.0
20200708164405 39 178 0.0 3.0 0.00 0.06 0.00 84 1009.9
20200708163905 39 80 2.0 2.0 0.00 0.06 0.00 84 1009.9
20200708163405 40 230 1.0 2.0 0.00 0.06 0.00 84 1009.9
20200708162905 40 147 0.0 1.0 0.00 0.06 0.00 84 1009.7
20200708162405 40 147 2.0 6.0 0.00 0.06 0.00 84 1009.7
20200708161905 39 118 1.0 3.0 0.00 0.06 0.00 83 1009.7
20200708161405 40 118 0.0 1.0 0.00 0.06 0.00 83 1009.7
20200708160905 40 118 0.0 1.0 0.00 0.06 0.00 83 1009.6
20200708160408 41 118 0.0 1.0 0.00 0.06 0.00 82 1009.6
20200708155906 41 118 2.0 3.0 0.00 0.06 0.00 82 1009.5
20200708155409 42 339 0.0 3.0 0.00 0.06 0.00 81 1009.4
20200708154905 43 6 2.0 3.0 0.00 0.06 0.00 81 1009.4
20200708154405 42 110 3.0 6.0 0.00 0.06 0.00 83 1009.3
20200708153905 41 97 0.0 3.0 0.00 0.06 0.00 84 1009.3
20200708153405 42 96 1.0 2.0 0.00 0.06 0.00 84 1009.3
20200708152905 41 91 3.0 3.0 0.00 0.06 0.00 86 1009.3